PWSweather.com
Personal Weather Stations
Station Observations
GIRWX1
Presovsky Kraj, GiraltovceSK

Presovsky KrajGiraltovceSK

Lat: 49.118, Lon: 21.52

Elevation: 630

Station Type: wh1080

http://www.meteogiraltovce.wz.cz/

Latest ConditionsUpdated 7:00:00 PM GMT+01:01 Tuesday, Nov 12, 2019
Currently Today's Max Today's Min Today's Average
Temperature 48.7°F9.3°C 55.2°F12.9°C 34.9°F1.6°C 44.2°F6.8°C
Dew Point 41.4°F5.2°C 44.3°F6.8°C 30.5°F-0.8°C 36.7°F2.6°C
Winds 2.0 mph NNE3.2 kmh NNE 12.9 mph -20.8 kmh - - 2.8 mph 4.5 kmh
Wind Gusts 3.8 mph6.1 kmh 20.6 mph33.2 kmh - -
Humidity 76% 91% 51% 76%
Pressure 29.77 in1008.1 mb 30.06 in1017.9 mb 29.77 in1008.1 mb -
Hour Temp Dew Point Humidity Winds Wind Gusts Pressure Precip Precip Rate Daily Precip Total
07:00 PM 48.7°F9.3°C 41.4°F5.2°C 76% 2.0 mph NNE3.2 kmh NNE 3.8 mph6.1 kmh 29.77 in1008.1 mb 0.00 in0.0 mm 0.00 in0.0 mm 0.00 in0.0 mm
06:55 PM 48.8°F9.3°C 41.6°F5.3°C 76% 2.5 mph ENE4.0 kmh ENE 4.5 mph7.2 kmh 29.78 in1008.5 mb 0.00 in0.0 mm 0.00 in0.0 mm 0.00 in0.0 mm
06:50 PM 48.9°F9.4°C 41.7°F5.4°C 76% 2.5 mph WSW4.0 kmh WSW 5.4 mph8.7 kmh 29.78 in1008.5 mb 0.00 in0.0 mm 0.00 in0.0 mm 0.00 in0.0 mm
06:45 PM 48.9°F9.4°C 41.7°F5.4°C 76% 2.8 mph N4.5 kmh N 4.5 mph7.2 kmh 29.79 in1008.8 mb 0.00 in0.0 mm 0.00 in0.0 mm 0.00 in0.0 mm
06:40 PM 49.0°F9.4°C 41.8°F5.4°C 76% 1.7 mph N2.7 kmh N 3.8 mph6.1 kmh 29.78 in1008.5 mb 0.00 in0.0 mm 0.00 in0.0 mm 0.00 in0.0 mm
06:35 PM 49.1°F9.5°C 41.9°F5.5°C 76% 1.0 mph WNW1.6 kmh WNW 3.1 mph5.0 kmh 29.79 in1008.8 mb 0.00 in0.0 mm 0.00 in0.0 mm 0.00 in0.0 mm
06:30 PM 49.3°F9.6°C 42.0°F5.6°C 76% 1.7 mph NE2.7 kmh NE 3.1 mph5.0 kmh 29.79 in1008.8 mb 0.00 in0.0 mm 0.00 in0.0 mm 0.00 in0.0 mm
06:25 PM 49.3°F9.6°C 41.9°F5.5°C 76% 1.7 mph E2.7 kmh E 4.5 mph7.2 kmh 29.79 in1008.8 mb 0.00 in0.0 mm 0.00 in0.0 mm 0.00 in0.0 mm
06:20 PM 49.3°F9.6°C 41.8°F5.4°C 75% 1.2 mph SW1.9 kmh SW 3.1 mph5.0 kmh 29.79 in1008.8 mb 0.00 in0.0 mm 0.00 in0.0 mm 0.00 in0.0 mm
06:15 PM 49.5°F9.7°C 41.9°F5.5°C 75% 1.8 mph NE2.9 kmh NE 3.1 mph5.0 kmh 29.79 in1008.8 mb 0.00 in0.0 mm 0.00 in0.0 mm 0.00 in0.0 mm
06:10 PM 49.6°F9.8°C 41.9°F5.5°C 75% 3.5 mph ENE5.6 kmh ENE 5.4 mph8.7 kmh 29.79 in1008.8 mb 0.00 in0.0 mm 0.00 in0.0 mm 0.00 in0.0 mm
06:05 PM 49.8°F9.9°C 41.9°F5.5°C 74% 3.8 mph E6.1 kmh E 4.5 mph7.2 kmh 29.80 in1009.1 mb 0.00 in0.0 mm 0.00 in0.0 mm 0.00 in0.0 mm
06:00 PM 49.8°F9.9°C 41.8°F5.4°C 74% 2.2 mph NE3.5 kmh NE 4.5 mph7.2 kmh 29.80 in1009.1 mb 0.00 in0.0 mm 0.00 in0.0 mm 0.00 in0.0 mm
05:55 PM 49.8°F9.9°C 41.5°F5.3°C 73% 2.7 mph NE4.3 kmh NE 3.8 mph6.1 kmh 29.80 in1009.1 mb 0.00 in0.0 mm 0.00 in0.0 mm 0.00 in0.0 mm
05:50 PM 49.8°F9.9°C 41.5°F5.3°C 73% 2.5 mph N4.0 kmh N 3.8 mph6.1 kmh 29.80 in1009.1 mb 0.00 in0.0 mm 0.00 in0.0 mm 0.00 in0.0 mm
05:45 PM 49.9°F9.9°C 41.6°F5.3°C 73% 2.2 mph 3.5 kmh 3.8 mph6.1 kmh 29.81 in1009.5 mb 0.00 in0.0 mm 0.00 in0.0 mm 0.00 in0.0 mm
05:40 PM 50.0°F10.0°C 41.7°F5.4°C 73% 1.4 mph N2.3 kmh N 3.1 mph5.0 kmh 29.81 in1009.5 mb 0.00 in0.0 mm 0.00 in0.0 mm 0.00 in0.0 mm
05:35 PM 50.0°F10.0°C 41.7°F5.4°C 73% 2.0 mph N3.2 kmh N 3.1 mph5.0 kmh 29.82 in1009.8 mb 0.00 in0.0 mm 0.00 in0.0 mm 0.00 in0.0 mm
05:30 PM 50.0°F10.0°C 41.4°F5.2°C 72% 2.6 mph NE4.2 kmh NE 3.8 mph6.1 kmh 29.82 in1009.8 mb 0.00 in0.0 mm 0.00 in0.0 mm 0.00 in0.0 mm
05:25 PM 50.0°F10.0°C 41.3°F5.2°C 72% 1.9 mph 3.1 kmh 3.1 mph5.0 kmh 29.82 in1009.8 mb 0.00 in0.0 mm 0.00 in0.0 mm 0.00 in0.0 mm
05:20 PM 50.2°F10.1°C 41.5°F5.3°C 72% 1.6 mph NNE2.6 kmh NNE 2.2 mph3.5 kmh 29.82 in1009.8 mb 0.00 in0.0 mm 0.00 in0.0 mm 0.00 in0.0 mm
05:15 PM 50.3°F10.2°C 41.6°F5.3°C 72% 0.2 mph 0.3 kmh 2.2 mph3.5 kmh 29.82 in1009.8 mb 0.00 in0.0 mm 0.00 in0.0 mm 0.00 in0.0 mm
05:10 PM 50.4°F10.2°C 41.7°F5.4°C 72% Calm Calm -- 29.82 in1009.8 mb 0.00 in0.0 mm 0.00 in0.0 mm 0.00 in0.0 mm
05:05 PM 50.5°F10.3°C 41.9°F5.5°C 72% Calm Calm -- 29.82 in1009.8 mb 0.00 in0.0 mm 0.00 in0.0 mm 0.00 in0.0 mm
05:00 PM 50.6°F10.3°C 41.5°F5.3°C 71% Calm Calm -- 29.82 in1009.8 mb 0.00 in0.0 mm 0.00 in0.0 mm 0.00 in0.0 mm
04:55 PM 50.7°F10.4°C 41.7°F5.4°C 71% Calm Calm -- 29.82 in1009.8 mb 0.00 in0.0 mm 0.00 in0.0 mm 0.00 in0.0 mm
04:50 PM 50.8°F10.4°C 41.7°F5.4°C 71% 0.2 mph W0.3 kmh W 0.7 mph1.1 kmh 29.82 in1009.8 mb 0.00 in0.0 mm 0.00 in0.0 mm 0.00 in0.0 mm
04:45 PM 50.9°F10.5°C 41.8°F5.4°C 71% 1.0 mph W1.6 kmh W 2.2 mph3.5 kmh 29.83 in1010.2 mb 0.00 in0.0 mm 0.00 in0.0 mm 0.00 in0.0 mm
04:40 PM 50.9°F10.5°C 41.7°F5.4°C 71% 1.1 mph WSW1.8 kmh WSW 2.2 mph3.5 kmh 29.83 in1010.2 mb 0.00 in0.0 mm 0.00 in0.0 mm 0.00 in0.0 mm
04:35 PM 51.0°F10.6°C 41.5°F5.3°C 70% 0.2 mph SW0.3 kmh SW 1.6 mph2.6 kmh 29.82 in1009.8 mb 0.00 in0.0 mm 0.00 in0.0 mm 0.00 in0.0 mm
04:30 PM 51.1°F10.6°C 41.6°F5.3°C 70% 0.2 mph NW0.3 kmh NW 0.7 mph1.1 kmh 29.82 in1009.8 mb 0.00 in0.0 mm 0.00 in0.0 mm 0.00 in0.0 mm
04:25 PM 51.1°F10.6°C 41.6°F5.3°C 70% 0.7 mph NNW1.1 kmh NNW 2.2 mph3.5 kmh 29.82 in1009.8 mb 0.00 in0.0 mm 0.00 in0.0 mm 0.00 in0.0 mm
04:20 PM 51.3°F10.7°C 41.8°F5.4°C 70% 1.6 mph N2.6 kmh N 2.2 mph3.5 kmh 29.82 in1009.8 mb 0.00 in0.0 mm 0.00 in0.0 mm 0.00 in0.0 mm
04:15 PM 51.4°F10.8°C 41.8°F5.4°C 69% 0.4 mph NE0.6 kmh NE 2.2 mph3.5 kmh 29.83 in1010.2 mb 0.00 in0.0 mm 0.00 in0.0 mm 0.00 in0.0 mm
04:10 PM 51.6°F10.9°C 41.6°F5.3°C 69% 0.2 mph E0.3 kmh E 1.6 mph2.6 kmh 29.83 in1010.2 mb 0.00 in0.0 mm 0.00 in0.0 mm 0.00 in0.0 mm
04:05 PM 51.8°F11.0°C 41.6°F5.3°C 68% Calm Calm 0.7 mph1.1 kmh 29.83 in1010.2 mb 0.00 in0.0 mm 0.00 in0.0 mm 0.00 in0.0 mm
04:00 PM 51.9°F11.1°C 41.5°F5.3°C 68% Calm Calm 0.7 mph1.1 kmh 29.83 in1010.2 mb 0.00 in0.0 mm 0.00 in0.0 mm 0.00 in0.0 mm
03:55 PM 52.1°F11.2°C 41.5°F5.3°C 67% 0.1 mph SE0.2 kmh SE 0.7 mph1.1 kmh 29.83 in1010.2 mb 0.00 in0.0 mm 0.00 in0.0 mm 0.00 in0.0 mm
03:50 PM 52.4°F11.3°C 41.4°F5.2°C 66% 2.2 mph 3.5 kmh 4.5 mph7.2 kmh 29.83 in1010.2 mb 0.00 in0.0 mm 0.00 in0.0 mm 0.00 in0.0 mm
03:45 PM 52.9°F11.6°C 41.6°F5.3°C 66% 3.6 mph N5.8 kmh N 4.5 mph7.2 kmh 29.84 in1010.5 mb 0.00 in0.0 mm 0.00 in0.0 mm 0.00 in0.0 mm
03:40 PM 53.1°F11.7°C 41.7°F5.4°C 65% 3.4 mph N5.5 kmh N 4.5 mph7.2 kmh 29.85 in1010.8 mb 0.00 in0.0 mm 0.00 in0.0 mm 0.00 in0.0 mm
03:35 PM 53.3°F11.8°C 41.5°F5.3°C 64% 3.7 mph NW6.0 kmh NW 4.5 mph7.2 kmh 29.86 in1011.2 mb 0.00 in0.0 mm 0.00 in0.0 mm 0.00 in0.0 mm
03:30 PM 53.4°F11.9°C 41.3°F5.2°C 63% 1.0 mph NW1.6 kmh NW 3.1 mph5.0 kmh 29.86 in1011.2 mb 0.00 in0.0 mm 0.00 in0.0 mm 0.00 in0.0 mm
03:25 PM 53.4°F11.9°C 41.1°F5.1°C 63% 1.0 mph NW1.6 kmh NW 3.1 mph5.0 kmh 29.86 in1011.2 mb 0.00 in0.0 mm 0.00 in0.0 mm 0.00 in0.0 mm
03:20 PM 53.3°F11.8°C 41.0°F5.0°C 63% 0.6 mph NW1.0 kmh NW 1.6 mph2.6 kmh 29.86 in1011.2 mb 0.00 in0.0 mm 0.00 in0.0 mm 0.00 in0.0 mm
03:15 PM 53.2°F11.8°C 41.0°F5.0°C 63% 2.5 mph SW4.0 kmh SW 5.4 mph8.7 kmh 29.86 in1011.2 mb 0.00 in0.0 mm 0.00 in0.0 mm 0.00 in0.0 mm
03:10 PM 53.2°F11.8°C 41.0°F5.0°C 63% 3.3 mph SE5.3 kmh SE 6.0 mph9.7 kmh 29.86 in1011.2 mb 0.00 in0.0 mm 0.00 in0.0 mm 0.00 in0.0 mm
03:05 PM 53.3°F11.8°C 41.0°F5.0°C 63% 3.8 mph S6.1 kmh S 6.0 mph9.7 kmh 29.87 in1011.5 mb 0.00 in0.0 mm 0.00 in0.0 mm 0.00 in0.0 mm
03:00 PM 53.4°F11.9°C 41.1°F5.1°C 63% 4.8 mph S7.7 kmh S 7.6 mph12.2 kmh 29.86 in1011.2 mb 0.00 in0.0 mm 0.00 in0.0 mm 0.00 in0.0 mm
02:55 PM 53.4°F11.9°C 40.8°F4.9°C 62% 2.6 mph S4.2 kmh S 5.4 mph8.7 kmh 29.86 in1011.2 mb 0.00 in0.0 mm 0.00 in0.0 mm 0.00 in0.0 mm
02:50 PM 53.5°F11.9°C 40.8°F4.9°C 62% 3.7 mph S6.0 kmh S 6.9 mph11.1 kmh 29.86 in1011.2 mb 0.00 in0.0 mm 0.00 in0.0 mm 0.00 in0.0 mm
02:45 PM 53.6°F12.0°C 40.9°F4.9°C 62% 4.5 mph S7.2 kmh S 6.0 mph9.7 kmh 29.86 in1011.2 mb 0.00 in0.0 mm 0.00 in0.0 mm 0.00 in0.0 mm
02:40 PM 53.7°F12.1°C 41.0°F5.0°C 62% 6.9 mph SSE11.1 kmh SSE 11.4 mph18.3 kmh 29.86 in1011.2 mb 0.00 in0.0 mm 0.00 in0.0 mm 0.00 in0.0 mm
02:35 PM 53.9°F12.2°C 40.8°F4.9°C 61% 7.1 mph S11.4 kmh S 9.8 mph15.8 kmh 29.86 in1011.2 mb 0.00 in0.0 mm 0.00 in0.0 mm 0.00 in0.0 mm
02:30 PM 54.1°F12.3°C 40.9°F4.9°C 61% 7.3 mph S11.7 kmh S 11.4 mph18.3 kmh 29.86 in1011.2 mb 0.00 in0.0 mm 0.00 in0.0 mm 0.00 in0.0 mm
02:25 PM 54.2°F12.3°C 41.0°F5.0°C 61% 7.4 mph SSW11.9 kmh SSW 10.7 mph17.2 kmh 29.86 in1011.2 mb 0.00 in0.0 mm 0.00 in0.0 mm 0.00 in0.0 mm
02:20 PM 54.3°F12.4°C 41.2°F5.1°C 61% 6.3 mph S10.1 kmh S 10.7 mph17.2 kmh 29.85 in1010.8 mb 0.00 in0.0 mm 0.00 in0.0 mm 0.00 in0.0 mm
02:15 PM 54.3°F12.4°C 41.2°F5.1°C 61% 7.4 mph S11.9 kmh S 9.8 mph15.8 kmh 29.86 in1011.2 mb 0.00 in0.0 mm 0.00 in0.0 mm 0.00 in0.0 mm
02:10 PM 54.3°F12.4°C 41.2°F5.1°C 61% 6.3 mph S10.1 kmh S 11.4 mph18.3 kmh 29.85 in1010.8 mb 0.00 in0.0 mm 0.00 in0.0 mm 0.00 in0.0 mm
02:05 PM 54.3°F12.4°C 41.2°F5.1°C 61% 3.8 mph SSE6.1 kmh SSE 5.4 mph8.7 kmh 29.85 in1010.8 mb 0.00 in0.0 mm 0.00 in0.0 mm 0.00 in0.0 mm
02:00 PM 54.3°F12.4°C 41.2°F5.1°C 61% 4.3 mph SW6.9 kmh SW 6.0 mph9.7 kmh 29.86 in1011.2 mb 0.00 in0.0 mm 0.00 in0.0 mm 0.00 in0.0 mm
01:55 PM 54.4°F12.4°C 41.2°F5.1°C 61% 5.2 mph S8.4 kmh S 7.6 mph12.2 kmh 29.86 in1011.2 mb 0.00 in0.0 mm 0.00 in0.0 mm 0.00 in0.0 mm
01:50 PM 54.4°F12.4°C 41.3°F5.2°C 61% 2.8 mph SSW4.5 kmh SSW 7.6 mph12.2 kmh 29.86 in1011.2 mb 0.00 in0.0 mm 0.00 in0.0 mm 0.00 in0.0 mm
01:45 PM 54.3°F12.4°C 41.2°F5.1°C 61% 3.6 mph S5.8 kmh S 9.2 mph14.8 kmh 29.86 in1011.2 mb 0.00 in0.0 mm 0.00 in0.0 mm 0.00 in0.0 mm
01:40 PM 54.3°F12.4°C 40.8°F4.9°C 60% 7.3 mph S11.7 kmh S 12.1 mph19.5 kmh 29.86 in1011.2 mb 0.00 in0.0 mm 0.00 in0.0 mm 0.00 in0.0 mm
01:35 PM 54.3°F12.4°C 40.7°F4.8°C 60% 9.1 mph SE14.6 kmh SE 15.9 mph25.6 kmh 29.86 in1011.2 mb 0.00 in0.0 mm 0.00 in0.0 mm 0.00 in0.0 mm
01:30 PM 54.1°F12.3°C 40.7°F4.8°C 60% 8.6 mph SE13.8 kmh SE 12.1 mph19.5 kmh 29.86 in1011.2 mb 0.00 in0.0 mm 0.00 in0.0 mm 0.00 in0.0 mm
01:25 PM 54.1°F12.3°C 40.6°F4.8°C 60% 7.8 mph S12.6 kmh S 13.0 mph20.9 kmh 29.87 in1011.5 mb 0.00 in0.0 mm 0.00 in0.0 mm 0.00 in0.0 mm
01:20 PM 54.1°F12.3°C 40.6°F4.8°C 60% 8.0 mph SE12.9 kmh SE 12.1 mph19.5 kmh 29.87 in1011.5 mb 0.00 in0.0 mm 0.00 in0.0 mm 0.00 in0.0 mm
01:15 PM 54.1°F12.3°C 40.6°F4.8°C 60% 10.6 mph SE17.1 kmh SE 14.5 mph23.3 kmh 29.88 in1011.9 mb 0.00 in0.0 mm 0.00 in0.0 mm 0.00 in0.0 mm
01:10 PM 54.1°F12.3°C 40.5°F4.7°C 60% 9.3 mph SSE15.0 kmh SSE 15.2 mph24.5 kmh 29.88 in1011.9 mb 0.00 in0.0 mm 0.00 in0.0 mm 0.00 in0.0 mm
01:05 PM 54.0°F12.2°C 40.4°F4.7°C 60% 8.1 mph S13.0 kmh S 10.7 mph17.2 kmh 29.88 in1011.9 mb 0.00 in0.0 mm 0.00 in0.0 mm 0.00 in0.0 mm
01:00 PM 54.0°F12.2°C 40.3°F4.6°C 60% 8.9 mph SE14.3 kmh SE 13.0 mph20.9 kmh 29.88 in1011.9 mb 0.00 in0.0 mm 0.00 in0.0 mm 0.00 in0.0 mm
12:55 PM 54.1°F12.3°C 39.9°F4.4°C 59% 10.2 mph SE16.4 kmh SE 15.2 mph24.5 kmh 29.88 in1011.9 mb 0.00 in0.0 mm 0.00 in0.0 mm 0.00 in0.0 mm
12:50 PM 54.3°F12.4°C 39.8°F4.3°C 58% 10.2 mph SSE16.4 kmh SSE 15.2 mph24.5 kmh 29.89 in1012.2 mb 0.00 in0.0 mm 0.00 in0.0 mm 0.00 in0.0 mm
12:45 PM 54.5°F12.5°C 39.6°F4.2°C 57% 12.9 mph SSE20.8 kmh SSE 15.9 mph25.6 kmh 29.89 in1012.2 mb 0.00 in0.0 mm 0.00 in0.0 mm 0.00 in0.0 mm
12:40 PM 54.8°F12.7°C 39.0°F3.9°C 55% 10.7 mph SE17.2 kmh SE 20.6 mph33.2 kmh 29.89 in1012.2 mb 0.00 in0.0 mm 0.00 in0.0 mm 0.00 in0.0 mm
12:35 PM 54.9°F12.7°C 38.1°F3.4°C 53% 10.9 mph SE17.5 kmh SE 15.9 mph25.6 kmh 29.89 in1012.2 mb 0.00 in0.0 mm 0.00 in0.0 mm 0.00 in0.0 mm
12:30 PM 54.9°F12.7°C 38.1°F3.4°C 53% 7.5 mph SSE12.1 kmh SSE 18.3 mph29.5 kmh 29.90 in1012.5 mb 0.00 in0.0 mm 0.00 in0.0 mm 0.00 in0.0 mm
12:25 PM 54.7°F12.6°C 39.0°F3.9°C 55% 9.2 mph SSE14.8 kmh SSE 13.6 mph21.9 kmh 29.90 in1012.5 mb 0.00 in0.0 mm 0.00 in0.0 mm 0.00 in0.0 mm
12:20 PM 54.6°F12.6°C 39.5°F4.2°C 57% 8.8 mph SSE14.2 kmh SSE 14.5 mph23.3 kmh 29.90 in1012.5 mb 0.00 in0.0 mm 0.00 in0.0 mm 0.00 in0.0 mm
12:15 PM 54.5°F12.5°C 39.3°F4.1°C 56% 7.1 mph SE11.4 kmh SE 13.0 mph20.9 kmh 29.90 in1012.5 mb 0.00 in0.0 mm 0.00 in0.0 mm 0.00 in0.0 mm
12:10 PM 54.5°F12.5°C 39.1°F3.9°C 56% 6.1 mph S9.8 kmh S 13.0 mph20.9 kmh 29.90 in1012.5 mb 0.00 in0.0 mm 0.00 in0.0 mm 0.00 in0.0 mm
12:05 PM 54.6°F12.6°C 39.0°F3.9°C 55% 9.7 mph S15.6 kmh S 12.1 mph19.5 kmh 29.90 in1012.5 mb 0.00 in0.0 mm 0.00 in0.0 mm 0.00 in0.0 mm
12:00 PM 54.7°F12.6°C 38.4°F3.6°C 54% 9.9 mph S15.9 kmh S 12.1 mph19.5 kmh 29.91 in1012.9 mb 0.00 in0.0 mm 0.00 in0.0 mm 0.00 in0.0 mm
11:55 AM 54.9°F12.7°C 37.8°F3.2°C 53% 7.4 mph SSE11.9 kmh SSE 12.1 mph19.5 kmh 29.91 in1012.9 mb 0.00 in0.0 mm 0.00 in0.0 mm 0.00 in0.0 mm
11:50 AM 54.8°F12.7°C 38.2°F3.4°C 53% 4.9 mph ESE7.9 kmh ESE 7.6 mph12.2 kmh 29.91 in1012.9 mb 0.00 in0.0 mm 0.00 in0.0 mm 0.00 in0.0 mm
11:45 AM 55.0°F12.8°C 37.2°F2.9°C 51% 9.7 mph SSE15.6 kmh SSE 15.2 mph24.5 kmh 29.91 in1012.9 mb 0.00 in0.0 mm 0.00 in0.0 mm 0.00 in0.0 mm
11:40 AM 55.2°F12.9°C 37.6°F3.1°C 51% 10.0 mph S16.1 kmh S 19.0 mph30.6 kmh 29.91 in1012.9 mb 0.00 in0.0 mm 0.00 in0.0 mm 0.00 in0.0 mm
11:35 AM 55.2°F12.9°C 38.4°F3.6°C 53% 6.5 mph SE10.5 kmh SE 10.7 mph17.2 kmh 29.91 in1012.9 mb 0.00 in0.0 mm 0.00 in0.0 mm 0.00 in0.0 mm
11:30 AM 54.4°F12.4°C 39.1°F3.9°C 56% 8.3 mph SE13.4 kmh SE 15.2 mph24.5 kmh 29.92 in1013.2 mb 0.00 in0.0 mm 0.00 in0.0 mm 0.00 in0.0 mm
11:25 AM 54.5°F12.5°C 39.2°F4.0°C 56% 8.4 mph SE13.5 kmh SE 13.6 mph21.9 kmh 29.92 in1013.2 mb 0.00 in0.0 mm 0.00 in0.0 mm 0.00 in0.0 mm
11:20 AM 54.7°F12.6°C 38.5°F3.6°C 54% 9.7 mph SE15.6 kmh SE 13.6 mph21.9 kmh 29.92 in1013.2 mb 0.00 in0.0 mm 0.00 in0.0 mm 0.00 in0.0 mm
11:15 AM 55.2°F12.9°C 37.8°F3.2°C 52% 9.5 mph S15.3 kmh S 14.5 mph23.3 kmh 29.92 in1013.2 mb 0.00 in0.0 mm 0.00 in0.0 mm 0.00 in0.0 mm
11:10 AM 55.1°F12.8°C 39.4°F4.1°C 55% 10.7 mph SE17.2 kmh SE 17.4 mph28.0 kmh 29.92 in1013.2 mb 0.00 in0.0 mm 0.00 in0.0 mm 0.00 in0.0 mm
11:05 AM 54.1°F12.3°C 40.3°F4.6°C 59% 5.3 mph SE8.5 kmh SE 15.9 mph25.6 kmh 29.93 in1013.5 mb 0.00 in0.0 mm 0.00 in0.0 mm 0.00 in0.0 mm
11:00 AM 53.3°F11.8°C 40.1°F4.5°C 61% 5.2 mph SSW8.4 kmh SSW 8.3 mph13.4 kmh 29.93 in1013.5 mb 0.00 in0.0 mm 0.00 in0.0 mm 0.00 in0.0 mm
10:55 AM 52.9°F11.6°C 39.4°F4.1°C 60% 6.8 mph S10.9 kmh S 14.5 mph23.3 kmh 29.94 in1013.9 mb 0.00 in0.0 mm 0.00 in0.0 mm 0.00 in0.0 mm
10:50 AM 52.9°F11.6°C 39.8°F4.3°C 61% 6.7 mph S10.8 kmh S 11.4 mph18.3 kmh 29.94 in1013.9 mb 0.00 in0.0 mm 0.00 in0.0 mm 0.00 in0.0 mm
10:45 AM 52.8°F11.6°C 40.6°F4.8°C 63% 5.9 mph SSW9.5 kmh SSW 9.8 mph15.8 kmh 29.94 in1013.9 mb 0.00 in0.0 mm 0.00 in0.0 mm 0.00 in0.0 mm
10:40 AM 51.5°F10.8°C 41.2°F5.1°C 68% 5.2 mph SSW8.4 kmh SSW 7.6 mph12.2 kmh 29.94 in1013.9 mb 0.00 in0.0 mm 0.00 in0.0 mm 0.00 in0.0 mm
10:35 AM 50.7°F10.4°C 41.6°F5.3°C 71% 3.3 mph SW5.3 kmh SW 4.5 mph7.2 kmh 29.94 in1013.9 mb 0.00 in0.0 mm 0.00 in0.0 mm 0.00 in0.0 mm
10:30 AM 50.4°F10.2°C 42.1°F5.6°C 73% 1.9 mph SW3.1 kmh SW 5.4 mph8.7 kmh 29.94 in1013.9 mb 0.00 in0.0 mm 0.00 in0.0 mm 0.00 in0.0 mm
10:25 AM 50.0°F10.0°C 43.5°F6.4°C 78% 2.1 mph WSW3.4 kmh WSW 3.8 mph6.1 kmh 29.94 in1013.9 mb 0.00 in0.0 mm 0.00 in0.0 mm 0.00 in0.0 mm
10:20 AM 49.0°F9.4°C 43.9°F6.6°C 82% 1.6 mph ESE2.6 kmh ESE 3.1 mph5.0 kmh 29.95 in1014.2 mb 0.00 in0.0 mm 0.00 in0.0 mm 0.00 in0.0 mm
10:15 AM 48.3°F9.1°C 44.3°F6.8°C 86% 1.5 mph E2.4 kmh E 3.1 mph5.0 kmh 29.95 in1014.2 mb 0.00 in0.0 mm 0.00 in0.0 mm 0.00 in0.0 mm
10:10 AM 47.0°F8.3°C 43.3°F6.3°C 87% 2.7 mph E4.3 kmh E 4.5 mph7.2 kmh 29.95 in1014.2 mb 0.00 in0.0 mm 0.00 in0.0 mm 0.00 in0.0 mm
10:05 AM 44.6°F7.0°C 42.1°F5.6°C 91% Calm Calm 0.7 mph1.1 kmh 29.96 in1014.6 mb 0.00 in0.0 mm 0.00 in0.0 mm 0.00 in0.0 mm
10:00 AM 44.5°F6.9°C 42.0°F5.6°C 91% 0.4 mph SE0.6 kmh SE 1.6 mph2.6 kmh 29.96 in1014.6 mb 0.00 in0.0 mm 0.00 in0.0 mm 0.00 in0.0 mm
09:55 AM 44.1°F6.7°C 41.6°F5.3°C 91% 0.8 mph SE1.3 kmh SE 2.2 mph3.5 kmh 29.96 in1014.6 mb 0.00 in0.0 mm 0.00 in0.0 mm 0.00 in0.0 mm
09:50 AM 43.5°F6.4°C 41.0°F5.0°C 91% 1.4 mph ENE2.3 kmh ENE 2.2 mph3.5 kmh 29.96 in1014.6 mb 0.00 in0.0 mm 0.00 in0.0 mm 0.00 in0.0 mm
09:45 AM 43.2°F6.2°C 40.7°F4.8°C 91% 0.7 mph SE1.1 kmh SE 1.6 mph2.6 kmh 29.96 in1014.6 mb 0.00 in0.0 mm 0.00 in0.0 mm 0.00 in0.0 mm
09:40 AM 43.0°F6.1°C 40.6°F4.8°C 91% 1.2 mph NE1.9 kmh NE 3.1 mph5.0 kmh 29.97 in1014.9 mb 0.00 in0.0 mm 0.00 in0.0 mm 0.00 in0.0 mm
09:35 AM 42.6°F5.9°C 40.2°F4.6°C 91% 2.1 mph NE3.4 kmh NE 3.8 mph6.1 kmh 29.97 in1014.9 mb 0.00 in0.0 mm 0.00 in0.0 mm 0.00 in0.0 mm
09:30 AM 42.2°F5.7°C 39.8°F4.3°C 91% 0.9 mph NE1.4 kmh NE 2.2 mph3.5 kmh 29.98 in1015.2 mb 0.00 in0.0 mm 0.00 in0.0 mm 0.00 in0.0 mm
09:25 AM 41.7°F5.4°C 39.1°F3.9°C 90% 1.8 mph ENE2.9 kmh ENE 3.8 mph6.1 kmh 29.98 in1015.2 mb 0.00 in0.0 mm 0.00 in0.0 mm 0.00 in0.0 mm
09:20 AM 41.3°F5.2°C 38.6°F3.7°C 90% 3.0 mph NE4.8 kmh NE 4.5 mph7.2 kmh 29.98 in1015.2 mb 0.00 in0.0 mm 0.00 in0.0 mm 0.00 in0.0 mm
09:15 AM 40.7°F4.8°C 38.0°F3.3°C 90% 1.6 mph ENE2.6 kmh ENE 2.2 mph3.5 kmh 29.98 in1015.2 mb 0.00 in0.0 mm 0.00 in0.0 mm 0.00 in0.0 mm
09:10 AM 40.1°F4.5°C 37.4°F3.0°C 90% 1.5 mph NE2.4 kmh NE 3.1 mph5.0 kmh 29.98 in1015.2 mb 0.00 in0.0 mm 0.00 in0.0 mm 0.00 in0.0 mm
09:05 AM 39.3°F4.1°C 36.3°F2.4°C 89% 0.8 mph NE1.3 kmh NE 2.2 mph3.5 kmh 29.98 in1015.2 mb 0.00 in0.0 mm 0.00 in0.0 mm 0.00 in0.0 mm
09:00 AM 38.9°F3.8°C 36.0°F2.2°C 89% 0.5 mph SSE0.8 kmh SSE 1.6 mph2.6 kmh 29.98 in1015.2 mb 0.00 in0.0 mm 0.00 in0.0 mm 0.00 in0.0 mm
08:55 AM 38.6°F3.7°C 35.5°F1.9°C 89% 0.7 mph S1.1 kmh S 2.2 mph3.5 kmh 29.99 in1015.6 mb 0.00 in0.0 mm 0.00 in0.0 mm 0.00 in0.0 mm
08:50 AM 38.3°F3.5°C 35.1°F1.7°C 88% 0.3 mph SW0.5 kmh SW 1.6 mph2.6 kmh 29.98 in1015.2 mb 0.00 in0.0 mm 0.00 in0.0 mm 0.00 in0.0 mm
08:45 AM 38.0°F3.3°C 34.8°F1.6°C 88% 0.6 mph SSE1.0 kmh SSE 1.6 mph2.6 kmh 29.99 in1015.6 mb 0.00 in0.0 mm 0.00 in0.0 mm 0.00 in0.0 mm
08:40 AM 37.8°F3.2°C 34.6°F1.4°C 88% 0.2 mph SW0.3 kmh SW 1.6 mph2.6 kmh 29.99 in1015.6 mb 0.00 in0.0 mm 0.00 in0.0 mm 0.00 in0.0 mm
08:35 AM 37.6°F3.1°C 34.4°F1.3°C 88% 0.7 mph E1.1 kmh E 2.2 mph3.5 kmh 29.99 in1015.6 mb 0.00 in0.0 mm 0.00 in0.0 mm 0.00 in0.0 mm
08:30 AM 37.3°F2.9°C 34.1°F1.2°C 88% 2.0 mph NE3.2 kmh NE 3.1 mph5.0 kmh 29.99 in1015.6 mb 0.00 in0.0 mm 0.00 in0.0 mm 0.00 in0.0 mm
08:25 AM 37.1°F2.8°C 33.6°F0.9°C 87% 1.2 mph NE1.9 kmh NE 2.2 mph3.5 kmh 30.00 in1015.9 mb 0.00 in0.0 mm 0.00 in0.0 mm 0.00 in0.0 mm
08:20 AM 36.9°F2.7°C 33.4°F0.8°C 87% 1.3 mph NE2.1 kmh NE 3.1 mph5.0 kmh 30.00 in1015.9 mb 0.00 in0.0 mm 0.00 in0.0 mm 0.00 in0.0 mm
08:15 AM 36.6°F2.6°C 33.1°F0.6°C 87% 1.8 mph NE2.9 kmh NE 3.1 mph5.0 kmh 30.00 in1015.9 mb 0.00 in0.0 mm 0.00 in0.0 mm 0.00 in0.0 mm
08:10 AM 36.4°F2.4°C 32.9°F0.5°C 87% 2.2 mph NE3.5 kmh NE 3.8 mph6.1 kmh 30.00 in1015.9 mb 0.00 in0.0 mm 0.00 in0.0 mm 0.00 in0.0 mm
08:05 AM 36.3°F2.4°C 32.8°F0.4°C 87% 3.1 mph NE5.0 kmh NE 3.8 mph6.1 kmh 30.00 in1015.9 mb 0.00 in0.0 mm 0.00 in0.0 mm 0.00 in0.0 mm
08:00 AM 36.1°F2.3°C 32.7°F0.4°C 87% 3.4 mph NE5.5 kmh NE 4.5 mph7.2 kmh 30.00 in1015.9 mb 0.00 in0.0 mm 0.00 in0.0 mm 0.00 in0.0 mm
07:55 AM 35.9°F2.2°C 32.3°F0.2°C 86% 3.5 mph NE5.6 kmh NE 4.5 mph7.2 kmh 30.01 in1016.3 mb 0.00 in0.0 mm 0.00 in0.0 mm 0.00 in0.0 mm
07:50 AM 35.8°F2.1°C 32.0°F0.0°C 86% 2.5 mph NE4.0 kmh NE 3.8 mph6.1 kmh 30.01 in1016.3 mb 0.00 in0.0 mm 0.00 in0.0 mm 0.00 in0.0 mm
07:45 AM 35.5°F1.9°C 31.8°F-0.1°C 86% 2.5 mph NE4.0 kmh NE 3.8 mph6.1 kmh 30.01 in1016.3 mb 0.00 in0.0 mm 0.00 in0.0 mm 0.00 in0.0 mm
07:40 AM 35.4°F1.9°C 31.7°F-0.2°C 86% 1.8 mph NE2.9 kmh NE 3.8 mph6.1 kmh 30.01 in1016.3 mb 0.00 in0.0 mm 0.00 in0.0 mm 0.00 in0.0 mm
07:35 AM 35.3°F1.8°C 31.5°F-0.3°C 86% 2.2 mph NE3.5 kmh NE 3.8 mph6.1 kmh 30.01 in1016.3 mb 0.00 in0.0 mm 0.00 in0.0 mm 0.00 in0.0 mm
07:30 AM 35.1°F1.7°C 31.4°F-0.3°C 86% 3.5 mph NE5.6 kmh NE 4.5 mph7.2 kmh 30.02 in1016.6 mb 0.00 in0.0 mm 0.00 in0.0 mm 0.00 in0.0 mm
07:25 AM 35.1°F1.7°C 31.3°F-0.4°C 86% 3.2 mph E5.1 kmh E 4.5 mph7.2 kmh 30.01 in1016.3 mb 0.00 in0.0 mm 0.00 in0.0 mm 0.00 in0.0 mm
07:20 AM 34.9°F1.6°C 31.1°F-0.5°C 86% 2.6 mph NE4.2 kmh NE 3.8 mph6.1 kmh 30.02 in1016.6 mb 0.00 in0.0 mm 0.00 in0.0 mm 0.00 in0.0 mm
07:15 AM 34.9°F1.6°C 31.1°F-0.5°C 86% 1.6 mph NE2.6 kmh NE 2.2 mph3.5 kmh 30.02 in1016.6 mb 0.00 in0.0 mm 0.00 in0.0 mm 0.00 in0.0 mm
07:10 AM 35.0°F1.7°C 31.3°F-0.4°C 86% 0.4 mph NE0.6 kmh NE 2.2 mph3.5 kmh 30.01 in1016.3 mb 0.00 in0.0 mm 0.00 in0.0 mm 0.00 in0.0 mm
07:05 AM 35.1°F1.7°C 31.3°F-0.4°C 86% 0.2 mph NNW0.3 kmh NNW 1.6 mph2.6 kmh 30.01 in1016.3 mb 0.00 in0.0 mm 0.00 in0.0 mm 0.00 in0.0 mm
07:00 AM 35.1°F1.7°C 31.3°F-0.4°C 86% 0.9 mph E1.4 kmh E 2.2 mph3.5 kmh 30.00 in1015.9 mb 0.00 in0.0 mm 0.00 in0.0 mm 0.00 in0.0 mm
06:55 AM 35.1°F1.7°C 31.3°F-0.4°C 86% 2.6 mph NE4.2 kmh NE 4.5 mph7.2 kmh 30.00 in1015.9 mb 0.00 in0.0 mm 0.00 in0.0 mm 0.00 in0.0 mm
06:50 AM 35.1°F1.7°C 31.3°F-0.4°C 86% 3.6 mph NNE5.8 kmh NNE 5.4 mph8.7 kmh 30.00 in1015.9 mb 0.00 in0.0 mm 0.00 in0.0 mm 0.00 in0.0 mm
06:45 AM 35.2°F1.8°C 31.5°F-0.3°C 86% 3.0 mph NE4.8 kmh NE 3.8 mph6.1 kmh 30.00 in1015.9 mb 0.00 in0.0 mm 0.00 in0.0 mm 0.00 in0.0 mm
06:40 AM 35.3°F1.8°C 31.6°F-0.2°C 86% 3.1 mph NE5.0 kmh NE 3.8 mph6.1 kmh 30.00 in1015.9 mb 0.00 in0.0 mm 0.00 in0.0 mm 0.00 in0.0 mm
06:35 AM 35.4°F1.9°C 31.7°F-0.2°C 86% 2.2 mph NE3.5 kmh NE 3.8 mph6.1 kmh 30.00 in1015.9 mb 0.00 in0.0 mm 0.00 in0.0 mm 0.00 in0.0 mm
06:30 AM 35.6°F2.0°C 31.8°F-0.1°C 86% 1.7 mph NE2.7 kmh NE 3.1 mph5.0 kmh 30.00 in1015.9 mb 0.00 in0.0 mm 0.00 in0.0 mm 0.00 in0.0 mm
06:25 AM 35.7°F2.1°C 31.9°F-0.1°C 86% 2.3 mph NE3.7 kmh NE 3.1 mph5.0 kmh 30.00 in1015.9 mb 0.00 in0.0 mm 0.00 in0.0 mm 0.00 in0.0 mm
06:20 AM 35.9°F2.2°C 32.1°F0.1°C 86% 2.4 mph NE3.9 kmh NE 3.8 mph6.1 kmh 29.99 in1015.6 mb 0.00 in0.0 mm 0.00 in0.0 mm 0.00 in0.0 mm
06:15 AM 36.0°F2.2°C 32.3°F0.2°C 86% 2.3 mph NE3.7 kmh NE 3.8 mph6.1 kmh 29.99 in1015.6 mb 0.00 in0.0 mm 0.00 in0.0 mm 0.00 in0.0 mm
06:10 AM 36.3°F2.4°C 32.5°F0.3°C 86% 0.9 mph NNE1.4 kmh NNE 3.1 mph5.0 kmh 29.99 in1015.6 mb 0.00 in0.0 mm 0.00 in0.0 mm 0.00 in0.0 mm
06:05 AM 36.3°F2.4°C 32.5°F0.3°C 86% 0.7 mph NE1.1 kmh NE 1.6 mph2.6 kmh 29.99 in1015.6 mb 0.00 in0.0 mm 0.00 in0.0 mm 0.00 in0.0 mm
06:00 AM 36.3°F2.4°C 32.5°F0.3°C 86% 1.2 mph NE1.9 kmh NE 2.2 mph3.5 kmh 30.00 in1015.9 mb 0.00 in0.0 mm 0.00 in0.0 mm 0.00 in0.0 mm
05:55 AM 36.3°F2.4°C 32.5°F0.3°C 86% 1.1 mph ENE1.8 kmh ENE 2.2 mph3.5 kmh 30.00 in1015.9 mb 0.00 in0.0 mm 0.00 in0.0 mm 0.00 in0.0 mm
05:50 AM 36.5°F2.5°C 32.7°F0.4°C 86% 0.1 mph NE0.2 kmh NE 1.6 mph2.6 kmh 30.00 in1015.9 mb 0.00 in0.0 mm 0.00 in0.0 mm 0.00 in0.0 mm
05:45 AM 36.5°F2.5°C 32.7°F0.4°C 86% 0.2 mph NW0.3 kmh NW 1.6 mph2.6 kmh 30.00 in1015.9 mb 0.00 in0.0 mm 0.00 in0.0 mm 0.00 in0.0 mm
05:40 AM 36.6°F2.6°C 32.8°F0.4°C 86% Calm Calm 0.7 mph1.1 kmh 30.00 in1015.9 mb 0.00 in0.0 mm 0.00 in0.0 mm 0.00 in0.0 mm
05:35 AM 36.7°F2.6°C 32.9°F0.5°C 86% Calm Calm 0.7 mph1.1 kmh 30.00 in1015.9 mb 0.00 in0.0 mm 0.00 in0.0 mm 0.00 in0.0 mm
05:30 AM 36.7°F2.6°C 32.9°F0.5°C 86% Calm Calm 0.7 mph1.1 kmh 30.00 in1015.9 mb 0.00 in0.0 mm 0.00 in0.0 mm 0.00 in0.0 mm
05:25 AM 36.7°F2.6°C 32.9°F0.5°C 86% 0.1 mph 0.2 kmh 0.7 mph1.1 kmh 30.00 in1015.9 mb 0.00 in0.0 mm 0.00 in0.0 mm 0.00 in0.0 mm
05:20 AM 36.7°F2.6°C 32.9°F0.5°C 86% Calm Calm 0.7 mph1.1 kmh 30.00 in1015.9 mb 0.00 in0.0 mm 0.00 in0.0 mm 0.00 in0.0 mm
05:15 AM 36.8°F2.7°C 33.0°F0.6°C 86% 0.9 mph NE1.4 kmh NE 2.2 mph3.5 kmh 30.00 in1015.9 mb 0.00 in0.0 mm 0.00 in0.0 mm 0.00 in0.0 mm
05:10 AM 36.9°F2.7°C 33.1°F0.6°C 86% 0.3 mph E0.5 kmh E 1.6 mph2.6 kmh 30.01 in1016.3 mb 0.00 in0.0 mm 0.00 in0.0 mm 0.00 in0.0 mm
05:05 AM 36.9°F2.7°C 33.1°F0.6°C 86% 1.2 mph NE1.9 kmh NE 2.2 mph3.5 kmh 30.01 in1016.3 mb 0.00 in0.0 mm 0.00 in0.0 mm 0.00 in0.0 mm
05:00 AM 36.9°F2.7°C 33.1°F0.6°C 86% 0.3 mph NE0.5 kmh NE 1.6 mph2.6 kmh 30.02 in1016.6 mb 0.00 in0.0 mm 0.00 in0.0 mm 0.00 in0.0 mm
04:55 AM 37.0°F2.8°C 33.2°F0.7°C 86% 1.6 mph S2.6 kmh S 3.1 mph5.0 kmh 30.03 in1016.9 mb 0.00 in0.0 mm 0.00 in0.0 mm 0.00 in0.0 mm
04:50 AM 37.0°F2.8°C 33.2°F0.7°C 86% 0.8 mph S1.3 kmh S 2.2 mph3.5 kmh 30.03 in1016.9 mb 0.00 in0.0 mm 0.00 in0.0 mm 0.00 in0.0 mm
04:45 AM 37.0°F2.8°C 33.2°F0.7°C 86% Calm Calm 0.7 mph1.1 kmh 30.03 in1016.9 mb 0.00 in0.0 mm 0.00 in0.0 mm 0.00 in0.0 mm
04:40 AM 37.0°F2.8°C 33.2°F0.7°C 86% 0.2 mph ENE0.3 kmh ENE 1.6 mph2.6 kmh 30.03 in1016.9 mb 0.00 in0.0 mm 0.00 in0.0 mm 0.00 in0.0 mm
04:35 AM 37.0°F2.8°C 33.2°F0.7°C 86% 0.4 mph SE0.6 kmh SE 1.6 mph2.6 kmh 30.03 in1016.9 mb 0.00 in0.0 mm 0.00 in0.0 mm 0.00 in0.0 mm
04:30 AM 37.0°F2.8°C 33.2°F0.7°C 86% Calm Calm 0.7 mph1.1 kmh 30.03 in1016.9 mb 0.00 in0.0 mm 0.00 in0.0 mm 0.00 in0.0 mm
04:25 AM 37.0°F2.8°C 33.2°F0.7°C 86% 0.6 mph WSW1.0 kmh WSW 1.6 mph2.6 kmh 30.03 in1016.9 mb 0.00 in0.0 mm 0.00 in0.0 mm 0.00 in0.0 mm
04:20 AM 37.0°F2.8°C 33.2°F0.7°C 86% 0.3 mph SW0.5 kmh SW 2.2 mph3.5 kmh 30.02 in1016.6 mb 0.00 in0.0 mm 0.00 in0.0 mm 0.00 in0.0 mm
04:15 AM 37.0°F2.8°C 33.2°F0.7°C 86% 1.5 mph NE2.4 kmh NE 3.8 mph6.1 kmh 30.02 in1016.6 mb 0.00 in0.0 mm 0.00 in0.0 mm 0.00 in0.0 mm
04:10 AM 36.8°F2.7°C 32.8°F0.4°C 85% 1.8 mph WNW2.9 kmh WNW 3.8 mph6.1 kmh 30.02 in1016.6 mb 0.00 in0.0 mm 0.00 in0.0 mm 0.00 in0.0 mm
04:05 AM 36.7°F2.6°C 32.6°F0.3°C 85% 1.6 mph SW2.6 kmh SW 2.2 mph3.5 kmh 30.02 in1016.6 mb 0.00 in0.0 mm 0.00 in0.0 mm 0.00 in0.0 mm
04:00 AM 36.7°F2.6°C 32.6°F0.3°C 85% 0.6 mph WSW1.0 kmh WSW 2.2 mph3.5 kmh 30.01 in1016.3 mb 0.00 in0.0 mm 0.00 in0.0 mm 0.00 in0.0 mm
03:55 AM 36.5°F2.5°C 32.4°F0.2°C 85% 1.3 mph WSW2.1 kmh WSW 3.1 mph5.0 kmh 30.01 in1016.3 mb 0.00 in0.0 mm 0.00 in0.0 mm 0.00 in0.0 mm
03:50 AM 36.5°F2.5°C 32.4°F0.2°C 85% 0.9 mph W1.4 kmh W 2.2 mph3.5 kmh 30.02 in1016.6 mb 0.00 in0.0 mm 0.00 in0.0 mm 0.00 in0.0 mm
03:45 AM 36.4°F2.4°C 32.4°F0.2°C 85% 0.1 mph 0.2 kmh 0.7 mph1.1 kmh 30.02 in1016.6 mb 0.00 in0.0 mm 0.00 in0.0 mm 0.00 in0.0 mm
03:40 AM 36.3°F2.4°C 32.3°F0.2°C 85% 0.4 mph 0.6 kmh 1.6 mph2.6 kmh 30.02 in1016.6 mb 0.00 in0.0 mm 0.00 in0.0 mm 0.00 in0.0 mm
03:35 AM 36.3°F2.4°C 32.3°F0.2°C 85% 1.4 mph NE2.3 kmh NE 2.2 mph3.5 kmh 30.02 in1016.6 mb 0.00 in0.0 mm 0.00 in0.0 mm 0.00 in0.0 mm
03:30 AM 36.2°F2.3°C 32.0°F0.0°C 85% 1.2 mph NE1.9 kmh NE 2.2 mph3.5 kmh 30.02 in1016.6 mb 0.00 in0.0 mm 0.00 in0.0 mm 0.00 in0.0 mm
03:25 AM 36.0°F2.2°C 31.7°F-0.2°C 84% 1.1 mph N1.8 kmh N 2.2 mph3.5 kmh 30.02 in1016.6 mb 0.00 in0.0 mm 0.00 in0.0 mm 0.00 in0.0 mm
03:20 AM 35.9°F2.2°C 31.5°F-0.3°C 84% 0.1 mph NE0.2 kmh NE 1.6 mph2.6 kmh 30.02 in1016.6 mb 0.00 in0.0 mm 0.00 in0.0 mm 0.00 in0.0 mm
03:15 AM 35.6°F2.0°C 31.3°F-0.4°C 84% Calm Calm 0.7 mph1.1 kmh 30.03 in1016.9 mb 0.00 in0.0 mm 0.00 in0.0 mm 0.00 in0.0 mm
03:10 AM 35.5°F1.9°C 31.2°F-0.4°C 84% Calm Calm 0.7 mph1.1 kmh 30.03 in1016.9 mb 0.00 in0.0 mm 0.00 in0.0 mm 0.00 in0.0 mm
03:05 AM 35.4°F1.9°C 31.1°F-0.5°C 84% 0.4 mph WNW0.6 kmh WNW 1.6 mph2.6 kmh 30.04 in1017.3 mb 0.00 in0.0 mm 0.00 in0.0 mm 0.00 in0.0 mm
03:00 AM 35.2°F1.8°C 30.9°F-0.6°C 84% Calm Calm -- 30.03 in1016.9 mb 0.00 in0.0 mm 0.00 in0.0 mm 0.00 in0.0 mm
02:55 AM 35.2°F1.8°C 30.9°F-0.6°C 84% 0.5 mph SSW0.8 kmh SSW 2.2 mph3.5 kmh 30.04 in1017.3 mb 0.00 in0.0 mm 0.00 in0.0 mm 0.00 in0.0 mm
02:50 AM 35.2°F1.8°C 30.9°F-0.6°C 84% Calm Calm 0.7 mph1.1 kmh 30.04 in1017.3 mb 0.00 in0.0 mm 0.00 in0.0 mm 0.00 in0.0 mm
02:45 AM 35.2°F1.8°C 30.9°F-0.6°C 84% 0.1 mph SW0.2 kmh SW 1.6 mph2.6 kmh 30.04 in1017.3 mb 0.00 in0.0 mm 0.00 in0.0 mm 0.00 in0.0 mm
02:40 AM 35.2°F1.8°C 30.7°F-0.7°C 83% Calm Calm 0.7 mph1.1 kmh 30.04 in1017.3 mb 0.00 in0.0 mm 0.00 in0.0 mm 0.00 in0.0 mm
02:35 AM 35.4°F1.9°C 30.8°F-0.7°C 83% 0.3 mph S0.5 kmh S 2.2 mph3.5 kmh 30.04 in1017.3 mb 0.00 in0.0 mm 0.00 in0.0 mm 0.00 in0.0 mm
02:30 AM 35.5°F1.9°C 30.8°F-0.7°C 83% 1.2 mph ENE1.9 kmh ENE 3.1 mph5.0 kmh 30.04 in1017.3 mb 0.00 in0.0 mm 0.00 in0.0 mm 0.00 in0.0 mm
02:25 AM 35.6°F2.0°C 31.0°F-0.6°C 83% 2.8 mph ENE4.5 kmh ENE 4.5 mph7.2 kmh 30.04 in1017.3 mb 0.00 in0.0 mm 0.00 in0.0 mm 0.00 in0.0 mm
02:20 AM 35.4°F1.9°C 30.8°F-0.7°C 83% 2.4 mph NNE3.9 kmh NNE 4.5 mph7.2 kmh 30.04 in1017.3 mb 0.00 in0.0 mm 0.00 in0.0 mm 0.00 in0.0 mm
02:15 AM 35.4°F1.9°C 30.8°F-0.7°C 83% 2.9 mph N4.7 kmh N 4.5 mph7.2 kmh 30.04 in1017.3 mb 0.00 in0.0 mm 0.00 in0.0 mm 0.00 in0.0 mm
02:10 AM 35.4°F1.9°C 30.8°F-0.7°C 83% 1.6 mph NNE2.6 kmh NNE 2.2 mph3.5 kmh 30.04 in1017.3 mb 0.00 in0.0 mm 0.00 in0.0 mm 0.00 in0.0 mm
02:05 AM 35.4°F1.9°C 30.8°F-0.7°C 83% 1.6 mph NE2.6 kmh NE 2.2 mph3.5 kmh 30.05 in1017.6 mb 0.00 in0.0 mm 0.00 in0.0 mm 0.00 in0.0 mm
02:00 AM 35.5°F1.9°C 30.9°F-0.6°C 83% 0.4 mph NE0.6 kmh NE 1.6 mph2.6 kmh 30.05 in1017.6 mb 0.00 in0.0 mm 0.00 in0.0 mm 0.00 in0.0 mm
01:55 AM 35.6°F2.0°C 31.0°F-0.6°C 83% 1.1 mph NNE1.8 kmh NNE 2.2 mph3.5 kmh 30.05 in1017.6 mb 0.00 in0.0 mm 0.00 in0.0 mm 0.00 in0.0 mm
01:50 AM 35.7°F2.1°C 31.0°F-0.6°C 83% 1.5 mph 2.4 kmh 3.1 mph5.0 kmh 30.05 in1017.6 mb 0.00 in0.0 mm 0.00 in0.0 mm 0.00 in0.0 mm
01:45 AM 35.6°F2.0°C 30.9°F-0.6°C 83% 2.0 mph NE3.2 kmh NE 3.1 mph5.0 kmh 30.05 in1017.6 mb 0.00 in0.0 mm 0.00 in0.0 mm 0.00 in0.0 mm
01:40 AM 35.6°F2.0°C 30.7°F-0.7°C 82% 1.1 mph NE1.8 kmh NE 2.2 mph3.5 kmh 30.05 in1017.6 mb 0.00 in0.0 mm 0.00 in0.0 mm 0.00 in0.0 mm
01:35 AM 35.6°F2.0°C 30.7°F-0.7°C 82% 0.9 mph NNW1.4 kmh NNW 2.2 mph3.5 kmh 30.05 in1017.6 mb 0.00 in0.0 mm 0.00 in0.0 mm 0.00 in0.0 mm
01:30 AM 35.5°F1.9°C 30.6°F-0.8°C 82% 1.0 mph NNW1.6 kmh NNW 3.1 mph5.0 kmh 30.05 in1017.6 mb 0.00 in0.0 mm 0.00 in0.0 mm 0.00 in0.0 mm
01:25 AM 35.5°F1.9°C 30.5°F-0.8°C 82% 1.4 mph N2.3 kmh N 3.1 mph5.0 kmh 30.05 in1017.6 mb 0.00 in0.0 mm 0.00 in0.0 mm 0.00 in0.0 mm
01:20 AM 35.6°F2.0°C 30.7°F-0.7°C 82% 1.0 mph E1.6 kmh E 3.1 mph5.0 kmh 30.05 in1017.6 mb 0.00 in0.0 mm 0.00 in0.0 mm 0.00 in0.0 mm
01:15 AM 35.7°F2.1°C 30.8°F-0.7°C 82% 1.3 mph SE2.1 kmh SE 3.1 mph5.0 kmh 30.05 in1017.6 mb 0.00 in0.0 mm 0.00 in0.0 mm 0.00 in0.0 mm
01:10 AM 36.0°F2.2°C 31.0°F-0.6°C 82% 2.0 mph 3.2 kmh 3.8 mph6.1 kmh 30.05 in1017.6 mb 0.00 in0.0 mm 0.00 in0.0 mm 0.00 in0.0 mm
01:05 AM 36.3°F2.4°C 31.4°F-0.3°C 82% 2.0 mph NNE3.2 kmh NNE 3.1 mph5.0 kmh 30.05 in1017.6 mb 0.00 in0.0 mm 0.00 in0.0 mm 0.00 in0.0 mm
01:00 AM 36.7°F2.6°C 31.7°F-0.2°C 82% 1.1 mph NE1.8 kmh NE 3.1 mph5.0 kmh 30.05 in1017.6 mb 0.00 in0.0 mm 0.00 in0.0 mm 0.00 in0.0 mm
12:55 AM 36.7°F2.6°C 31.7°F-0.2°C 82% 1.8 mph N2.9 kmh N 3.8 mph6.1 kmh 30.05 in1017.6 mb 0.00 in0.0 mm 0.00 in0.0 mm 0.00 in0.0 mm
12:50 AM 36.7°F2.6°C 31.7°F-0.2°C 82% 2.6 mph 4.2 kmh 3.8 mph6.1 kmh 30.05 in1017.6 mb 0.00 in0.0 mm 0.00 in0.0 mm 0.00 in0.0 mm
12:45 AM 36.8°F2.7°C 31.8°F-0.1°C 82% 1.9 mph N3.1 kmh N 3.1 mph5.0 kmh 30.05 in1017.6 mb 0.00 in0.0 mm 0.00 in0.0 mm 0.00 in0.0 mm
12:40 AM 36.9°F2.7°C 31.9°F-0.1°C 82% 2.8 mph NE4.5 kmh NE 4.5 mph7.2 kmh 30.05 in1017.6 mb 0.00 in0.0 mm 0.00 in0.0 mm 0.00 in0.0 mm
12:35 AM 37.0°F2.8°C 32.1°F0.1°C 82% 2.4 mph NE3.9 kmh NE 4.5 mph7.2 kmh 30.05 in1017.6 mb 0.00 in0.0 mm 0.00 in0.0 mm 0.00 in0.0 mm
12:30 AM 37.2°F2.9°C 32.3°F0.2°C 82% 1.3 mph N2.1 kmh N 3.1 mph5.0 kmh 30.05 in1017.6 mb 0.00 in0.0 mm 0.00 in0.0 mm 0.00 in0.0 mm
12:25 AM 37.5°F3.1°C 32.5°F0.3°C 82% Calm Calm -- 30.06 in1017.9 mb 0.00 in0.0 mm 0.00 in0.0 mm 0.00 in0.0 mm
12:20 AM 37.7°F3.2°C 32.7°F0.4°C 82% 0.4 mph NNW0.6 kmh NNW 1.6 mph2.6 kmh 30.05 in1017.6 mb 0.00 in0.0 mm 0.00 in0.0 mm 0.00 in0.0 mm
12:15 AM 37.8°F3.2°C 32.8°F0.4°C 82% 1.2 mph NNW1.9 kmh NNW 2.2 mph3.5 kmh 30.05 in1017.6 mb 0.00 in0.0 mm 0.00 in0.0 mm 0.00 in0.0 mm
12:10 AM 37.9°F3.3°C 32.6°F0.3°C 81% 1.9 mph 3.1 kmh 3.1 mph5.0 kmh 30.05 in1017.6 mb 0.00 in0.0 mm 0.00 in0.0 mm 0.00 in0.0 mm
12:05 AM 37.9°F3.3°C 32.6°F0.3°C 81% 2.2 mph 3.5 kmh 3.1 mph5.0 kmh 30.05 in1017.6 mb 0.00 in0.0 mm 0.00 in0.0 mm 0.00 in0.0 mm
12:00 AM 38.1°F3.4°C 32.8°F0.4°C 81% 2.0 mph NE3.2 kmh NE 3.1 mph5.0 kmh 30.05 in1017.6 mb 0.00 in0.0 mm 0.00 in0.0 mm 0.00 in0.0 mm